Time;durP1;ratioP1;P1;durP2;ratioP2;P2;SDS_P1;SDS_P2;PMS_P1;PMS_P2;Temp;Humidity;BMP_temperature;BMP_pressure;BME280_temperature;BME280_humidity;BME280_pressure;Samples;Min_cycle;Max_cycle;Signal;HPM_P1;HPM_P2
2021/12/20 00:01:16;;;;;;;12.18;2.38;;;5.00;99.90;;;;;;5098847;28;20590;-86
2021/12/20 00:03:43;;;;;;;10.65;1.95;;;5.10;99.90;;;;;;5098759;28;20484;-86
2021/12/20 00:06:10;;;;;;;15.07;2.35;;;5.10;99.90;;;;;;5098312;28;20040;-86
2021/12/20 00:08:36;;;;;;;15.35;3.00;;;5.10;99.90;;;;;;5098503;28;20050;-86
2021/12/20 00:11:04;;;;;;;9.95;2.22;;;5.00;99.90;;;;;;5098889;28;20046;-86
2021/12/20 00:13:31;;;;;;;7.10;1.98;;;5.00;99.90;;;;;;5116465;28;20122;-86
2021/12/20 00:15:58;;;;;;;9.18;1.90;;;4.90;99.90;;;;;;5116422;28;20075;-86
2021/12/20 00:18:25;;;;;;;14.85;2.28;;;4.90;99.90;;;;;;5098496;28;20380;-85
2021/12/20 00:20:51;;;;;;;10.68;2.05;;;4.70;99.90;;;;;;5116128;28;20055;-86
2021/12/20 00:23:18;;;;;;;16.77;2.10;;;4.70;99.90;;;;;;5116298;28;20089;-86
2021/12/20 00:25:48;;;;;;;13.23;2.22;;;4.60;99.90;;;;;;5098328;28;20052;-86
2021/12/20 00:28:19;;;;;;;18.52;2.63;;;4.50;99.90;;;;;;5098612;28;20054;-86
2021/12/20 00:30:47;;;;;;;14.60;1.38;;;4.50;99.90;;;;;;5098046;28;20083;-86
2021/12/20 00:33:14;;;;;;;12.10;2.00;;;4.50;99.90;;;;;;5098034;28;20044;-86
2021/12/20 00:35:42;;;;;;;17.73;2.58;;;4.50;99.90;;;;;;5097832;28;20058;-86
2021/12/20 00:40:54;;;;;;;15.63;2.25;;;4.50;99.90;;;;;;5116107;28;20043;-86
2021/12/20 00:43:21;;;;;;;16.63;2.85;;;4.50;99.90;;;;;;5098106;28;20066;-86
2021/12/20 00:45:48;;;;;;;15.77;2.30;;;4.50;99.90;;;;;;5115532;28;20127;-86
2021/12/20 00:48:15;;;;;;;8.20;1.52;;;4.60;99.90;;;;;;5097669;28;20047;-86
2021/12/20 00:50:43;;;;;;;12.18;2.45;;;4.60;99.90;;;;;;5115754;28;20420;-85
2021/12/20 00:53:12;;;;;;;15.55;2.33;;;4.50;99.90;;;;;;5097237;28;20506;-86
2021/12/20 00:55:39;;;;;;;15.02;2.58;;;4.50;99.90;;;;;;5097705;28;20487;-86
2021/12/20 00:58:07;;;;;;;10.75;2.10;;;4.40;99.90;;;;;;5115720;28;20079;-86
2021/12/20 01:00:46;;;;;;;8.88;2.47;;;4.50;99.90;;;;;;5115237;28;20139;-85
2021/12/20 01:03:15;;;;;;;13.55;2.20;;;4.40;99.90;;;;;;5115865;28;20101;-86
2021/12/20 01:05:42;;;;;;;19.70;2.40;;;4.50;99.90;;;;;;5098075;28;20055;-87
2021/12/20 01:08:10;;;;;;;16.23;2.55;;;4.50;99.90;;;;;;5097542;28;20043;-86
2021/12/20 01:10:46;;;;;;;15.00;2.35;;;4.50;99.90;;;;;;5097153;28;20483;-86
2021/12/20 01:13:15;;;;;;;20.02;2.65;;;4.40;99.90;;;;;;5097374;28;20086;-86
2021/12/20 01:15:48;;;;;;;19.27;3.13;;;4.30;99.90;;;;;;5115011;28;20087;-86
2021/12/20 01:18:16;;;;;;;16.25;2.70;;;4.20;99.90;;;;;;5097535;28;20044;-87
2021/12/20 01:20:43;;;;;;;19.15;2.80;;;4.20;99.90;;;;;;5097232;28;20058;-86
2021/12/20 01:23:11;;;;;;;14.50;2.58;;;4.20;99.90;;;;;;5114950;28;20480;-87
2021/12/20 01:25:39;;;;;;;12.20;2.75;;;4.30;99.90;;;;;;5114729;28;20090;-86
2021/12/20 01:28:06;;;;;;;15.05;2.60;;;4.30;99.90;;;;;;5097567;28;20083;-86
2021/12/20 01:30:35;;;;;;;17.98;2.95;;;4.30;99.90;;;;;;5097427;28;20079;-86
2021/12/20 01:33:02;;;;;;;13.18;2.75;;;4.30;99.90;;;;;;5073498;28;20046;-87
2021/12/20 01:35:29;;;;;;;15.57;2.60;;;4.30;99.90;;;;;;5074135;28;20086;-87
2021/12/20 01:37:56;;;;;;;14.00;2.45;;;4.20;99.90;;;;;;5073276;28;20083;-86
2021/12/20 01:40:24;;;;;;;15.13;2.53;;;4.20;99.90;;;;;;5074166;28;20051;-86
2021/12/20 01:42:57;;;;;;;13.60;2.47;;;4.10;99.90;;;;;;5073168;28;20083;-86
2021/12/20 01:45:27;;;;;;;16.92;2.80;;;4.00;99.90;;;;;;5073270;28;20106;-86
2021/12/20 01:48:16;;;;;;;8.98;2.03;;;3.90;99.90;;;;;;5074100;28;20127;-87
2021/12/20 01:53:15;;;;;;;13.80;1.95;;;3.50;99.90;;;;;;5074300;28;20054;-86
2021/12/20 01:55:41;;;;;;;19.60;2.88;;;3.40;99.90;;;;;;5073628;28;20444;-86
2021/12/20 01:58:08;;;;;;;15.15;2.38;;;3.40;99.90;;;;;;5072972;28;20054;-86
2021/12/20 02:00:37;;;;;;;15.43;2.92;;;3.50;99.90;;;;;;5072815;28;20500;-86
2021/12/20 02:03:04;;;;;;;15.52;2.17;;;3.50;99.90;;;;;;5072717;28;20044;-86
2021/12/20 02:08:22;;;;;;;15.98;2.70;;;3.60;99.90;;;;;;5073723;28;20067;-86
2021/12/20 02:10:56;;;;;;;13.55;2.10;;;3.70;99.90;;;;;;5072879;28;20055;-86
2021/12/20 02:13:27;;;;;;;16.33;1.92;;;3.60;99.90;;;;;;5073588;28;20137;-86
2021/12/20 02:15:56;;;;;;;16.00;2.50;;;3.70;99.90;;;;;;5073442;28;20547;-86
2021/12/20 02:18:23;;;;;;;8.77;2.60;;;3.70;99.90;;;;;;5072473;28;20046;-86
2021/12/20 02:20:50;;;;;;;20.00;3.00;;;3.60;99.90;;;;;;5089274;28;20053;-87
2021/12/20 02:23:17;;;;;;;11.57;2.33;;;3.60;99.90;;;;;;5072630;28;20055;-86
2021/12/20 02:25:44;;;;;;;12.55;2.22;;;3.60;99.90;;;;;;5072118;28;20048;-86
2021/12/20 02:28:14;;;;;;;9.50;1.88;;;3.50;99.90;;;;;;5073084;28;20048;-86
2021/12/20 02:38:49;;;;;;;15.98;2.55;;;3.30;99.90;;;;;;5113696;28;20055;-86
2021/12/20 02:41:22;;;;;;;15.35;3.33;;;3.40;99.90;;;;;;5096117;28;20054;-86
2021/12/20 02:43:56;;;;;;;17.33;3.03;;;3.50;99.90;;;;;;5096026;28;20057;-86
2021/12/20 02:49:07;;;;;;;14.98;3.03;;;3.60;99.90;;;;;;5113592;28;20487;-86
2021/12/20 02:51:34;;;;;;;11.80;2.50;;;3.60;99.90;;;;;;5095838;28;20131;-86
2021/12/20 02:54:04;;;;;;;12.05;2.40;;;3.60;99.90;;;;;;5095762;28;20133;-87
2021/12/20 02:56:31;;;;;;;13.55;2.50;;;3.60;99.90;;;;;;5095697;28;20130;-86
2021/12/20 02:58:58;;;;;;;16.50;2.65;;;3.60;99.90;;;;;;5113382;28;20039;-87
2021/12/20 03:01:26;;;;;;;9.88;2.13;;;3.70;99.90;;;;;;5113370;28;20126;-86
2021/12/20 03:03:55;;;;;;;14.13;2.53;;;3.70;99.90;;;;;;5095841;28;20046;-86
2021/12/20 03:06:51;;;;;;;14.70;2.40;;;3.60;99.90;;;;;;5095678;28;20079;-86
2021/12/20 03:09:21;;;;;;;15.10;2.88;;;3.60;99.90;;;;;;5093873;28;20043;-86
2021/12/20 03:11:51;;;;;;;13.00;2.42;;;3.50;99.90;;;;;;5095721;28;20587;-86
2021/12/20 03:14:31;;;;;;;15.90;2.70;;;3.60;99.90;;;;;;5095972;28;20083;-87
2021/12/20 03:16:59;;;;;;;9.25;1.95;;;3.50;99.90;;;;;;5098126;28;20051;-86
2021/12/20 03:19:27;;;;;;;17.17;3.30;;;3.50;99.90;;;;;;5117861;28;20040;-86
2021/12/20 03:21:55;;;;;;;12.65;2.63;;;3.40;99.90;;;;;;5099638;28;20051;-86
2021/12/20 03:24:21;;;;;;;14.10;2.83;;;3.30;99.90;;;;;;5099543;28;20051;-86
2021/12/20 03:26:48;;;;;;;18.38;2.92;;;3.10;99.90;;;;;;5099582;28;20081;-86
2021/12/20 03:29:15;;;;;;;23.58;2.53;;;2.80;99.90;;;;;;5099790;28;20048;-87
2021/12/20 03:31:42;;;;;;;21.02;3.47;;;2.70;99.90;;;;;;5099298;28;20361;-86
2021/12/20 03:34:10;;;;;;;11.93;3.00;;;2.50;99.90;;;;;;5099283;28;20050;-86
2021/12/20 03:36:37;;;;;;;12.50;2.63;;;2.30;99.90;;;;;;5098914;28;20051;-86
2021/12/20 03:39:07;;;;;;;9.57;2.40;;;2.00;99.90;;;;;;5098995;28;20535;-87
2021/12/20 03:41:34;;;;;;;12.38;2.70;;;1.80;99.90;;;;;;5117052;28;20400;-86
2021/12/20 03:44:02;;;;;;;16.50;2.78;;;1.70;99.90;;;;;;5117173;28;20122;-86
2021/12/20 03:46:29;;;;;;;11.88;2.63;;;1.50;99.90;;;;;;5099362;28;20057;-86
2021/12/20 03:48:56;;;;;;;26.50;3.33;;;1.40;99.90;;;;;;5098980;28;20040;-86
2021/12/20 03:51:23;;;;;;;15.57;3.05;;;1.20;99.90;;;;;;5098924;28;20051;-86
2021/12/20 03:53:50;;;;;;;17.70;5.50;;;1.20;99.90;;;;;;5099177;28;20058;-86
2021/12/20 03:56:17;;;;;;;16.27;5.30;;;1.10;99.90;;;;;;5098901;28;20044;-86
2021/12/20 03:58:43;;;;;;;11.55;3.78;;;1.00;99.90;;;;;;5098954;28;20048;-87
2021/12/20 04:01:12;;;;;;;23.65;4.45;;;0.70;99.90;;;;;;5098873;28;20491;-86
2021/12/20 04:03:41;;;;;;;22.05;4.15;;;0.50;99.90;;;;;;5116513;28;20044;-86
2021/12/20 04:06:10;;;;;;;19.27;4.15;;;0.40;99.90;;;;;;5098780;28;20393;-86
2021/12/20 04:08:38;;;;;;;18.98;4.15;;;0.30;99.90;;;;;;5099036;28;20126;-86
2021/12/20 04:11:05;;;;;;;17.92;5.05;;;0.20;99.90;;;;;;5116616;28;20166;-86
2021/12/20 04:13:32;;;;;;;14.55;3.45;;;0.10;99.90;;;;;;5116525;28;20048;-86
2021/12/20 04:16:00;;;;;;;13.07;3.65;;;0.10;99.90;;;;;;5098551;28;20415;-87
2021/12/20 04:18:29;;;;;;;13.82;3.58;;;-0.10;99.90;;;;;;5098197;28;20055;-86
2021/12/20 04:21:00;;;;;;;12.57;3.38;;;-0.20;99.90;;;;;;5116452;28;20073;-87
2021/12/20 04:23:27;;;;;;;20.92;3.53;;;-0.40;99.90;;;;;;5116391;28;20081;-87
2021/12/20 04:25:54;;;;;;;19.35;3.50;;;-0.50;99.90;;;;;;5098591;28;20050;-86
2021/12/20 04:28:21;;;;;;;13.27;2.88;;;-0.50;99.90;;;;;;5097478;28;20052;-87
2021/12/20 04:30:48;;;;;;;12.35;2.60;;;-0.50;99.90;;;;;;5098097;28;20120;-87
2021/12/20 04:33:15;;;;;;;14.27;3.22;;;-0.60;99.90;;;;;;5098463;28;20047;-86
2021/12/20 04:35:42;;;;;;;16.95;3.10;;;-0.60;99.90;;;;;;5115943;28;20058;-87
2021/12/20 04:38:10;;;;;;;17.27;3.72;;;-0.60;99.90;;;;;;5115465;28;20057;-87
2021/12/20 04:40:36;;;;;;;12.38;3.17;;;-0.60;99.90;;;;;;5097726;28;20090;-86
2021/12/20 04:43:04;;;;;;;22.25;4.10;;;-0.60;99.90;;;;;;5115826;28;20044;-86
2021/12/20 04:45:31;;;;;;;35.03;9.70;;;-0.70;99.90;;;;;;5115869;28;20087;-86
2021/12/20 04:47:59;;;;;;;23.33;7.18;;;-0.70;99.90;;;;;;5098223;28;20044;-87
2021/12/20 04:50:26;;;;;;;41.90;19.85;;;-0.80;99.90;;;;;;5098089;28;20138;-86
2021/12/20 04:52:54;;;;;;;37.95;17.30;;;-0.90;99.90;;;;;;5098044;28;20043;-86
2021/12/20 04:55:23;;;;;;;67.70;35.63;;;-0.90;99.90;;;;;;5115733;28;20476;-86
2021/12/20 04:57:50;;;;;;;59.05;27.48;;;-1.10;99.90;;;;;;5115640;28;20052;-86
2021/12/20 05:00:21;;;;;;;48.25;24.30;;;-1.20;99.90;;;;;;5097687;28;20499;-86
2021/12/20 05:02:48;;;;;;;46.90;21.10;;;-1.30;99.90;;;;;;5098015;28;20047;-87
2021/12/20 05:05:16;;;;;;;34.55;16.35;;;-1.40;99.90;;;;;;5097913;28;20134;-87
2021/12/20 05:07:44;;;;;;;27.20;11.60;;;-1.60;99.90;;;;;;5097662;28;20058;-86
2021/12/20 05:10:13;;;;;;;21.88;9.65;;;-1.60;99.90;;;;;;5097656;28;20079;-87
2021/12/20 05:12:40;;;;;;;28.88;9.73;;;-1.70;99.90;;;;;;5097406;28;20051;-87
2021/12/20 05:15:08;;;;;;;17.38;8.13;;;-1.70;99.90;;;;;;5097644;28;20054;-87
2021/12/20 05:17:36;;;;;;;18.60;6.72;;;-1.80;99.90;;;;;;5114760;28;20069;-87
2021/12/20 05:20:04;;;;;;;20.90;8.82;;;-1.80;99.90;;;;;;5097054;28;20084;-88
2021/12/20 05:22:31;;;;;;;19.23;6.00;;;-1.90;99.90;;;;;;5097129;28;20086;-88
2021/12/20 05:24:57;;;;;;;21.15;5.28;;;-2.00;99.90;;;;;;5097541;28;20449;-87
2021/12/20 05:27:24;;;;;;;21.58;4.70;;;-1.90;99.90;;;;;;5097356;28;20499;-88
2021/12/20 05:29:51;;;;;;;17.88;4.38;;;-1.90;99.90;;;;;;5097324;28;20057;-88
2021/12/20 05:32:18;;;;;;;21.35;4.63;;;-1.90;99.90;;;;;;5097052;28;20062;-88
2021/12/20 05:34:45;;;;;;;22.48;6.22;;;-1.90;99.90;;;;;;5097014;28;20055;-88
2021/12/20 05:37:13;;;;;;;21.75;10.00;;;-1.80;99.90;;;;;;5114801;28;20054;-88
2021/12/20 05:39:40;;;;;;;20.50;5.45;;;-1.90;99.90;;;;;;5095978;28;20130;-88
2021/12/20 05:42:08;;;;;;;17.67;4.10;;;-2.00;99.90;;;;;;5097132;28;20075;-89
2021/12/20 05:44:35;;;;;;;22.63;4.63;;;-2.00;99.90;;;;;;5097116;28;20048;-89
2021/12/20 05:47:02;;;;;;;15.95;4.10;;;-1.90;99.90;;;;;;5114975;28;20407;-88
2021/12/20 05:49:31;;;;;;;15.05;3.72;;;-1.90;99.90;;;;;;5096907;28;20054;-89
2021/12/20 05:52:00;;;;;;;18.08;3.92;;;-1.90;99.90;;;;;;5096950;28;20051;-89
2021/12/20 05:54:26;;;;;;;18.48;3.47;;;-1.90;99.90;;;;;;5097107;28;20043;-90
2021/12/20 05:56:53;;;;;;;20.35;3.50;;;-1.90;99.90;;;;;;5096703;28;20491;-90
2021/12/20 05:59:20;;;;;;;16.20;3.83;;;-1.90;99.90;;;;;;5097023;28;20075;-90
2021/12/20 06:01:47;;;;;;;14.65;4.28;;;-1.90;99.90;;;;;;5096801;28;20053;-89
2021/12/20 06:04:13;;;;;;;12.52;3.75;;;-1.90;99.90;;;;;;5096345;28;20552;-90
2021/12/20 06:06:40;;;;;;;15.32;3.50;;;-1.90;99.90;;;;;;5114557;28;20437;-90
2021/12/20 06:09:07;;;;;;;16.92;4.03;;;-1.90;99.90;;;;;;5096515;28;20055;-90
2021/12/20 06:11:34;;;;;;;11.18;3.70;;;-1.90;99.90;;;;;;5096749;28;20130;-90
2021/12/20 06:14:01;;;;;;;13.05;4.20;;;-2.00;99.90;;;;;;5096839;28;20043;-90
2021/12/20 06:16:27;;;;;;;13.30;4.10;;;-2.10;99.90;;;;;;5096531;28;20051;-90
2021/12/20 06:18:54;;;;;;;18.60;4.28;;;-2.10;99.90;;;;;;5096416;28;20056;-90
2021/12/20 06:21:21;;;;;;;16.63;4.60;;;-2.00;99.90;;;;;;5096557;28;20070;-90
2021/12/20 06:23:48;;;;;;;11.48;4.22;;;-2.10;99.90;;;;;;5096720;28;20466;-90
2021/12/20 06:26:15;;;;;;;12.50;3.53;;;-2.10;99.90;;;;;;5096583;28;20040;-91
2021/12/20 06:28:42;;;;;;;16.48;4.30;;;-2.20;99.90;;;;;;5096338;28;20506;-91
2021/12/20 06:31:09;;;;;;;13.23;3.92;;;-2.20;99.90;;;;;;5095850;28;20060;-91
2021/12/20 06:33:36;;;;;;;20.92;4.03;;;-2.40;99.90;;;;;;5096450;28;20140;-91
2021/12/20 06:36:03;;;;;;;14.45;3.67;;;-2.40;99.90;;;;;;5096351;28;20059;-91
2021/12/20 06:38:31;;;;;;;21.30;3.15;;;-2.40;99.90;;;;;;5096259;28;20069;-91
2021/12/20 06:40:58;;;;;;;16.65;5.55;;;-2.60;99.90;;;;;;5096767;28;20054;-91
2021/12/20 06:43:25;;;;;;;16.52;4.45;;;-2.50;99.90;;;;;;5096461;28;20054;-91
2021/12/20 06:45:52;;;;;;;7.68;3.45;;;-2.50;99.90;;;;;;5096324;28;20139;-92
2021/12/20 06:48:21;;;;;;;12.43;3.88;;;-2.50;99.90;;;;;;5097116;28;20082;-92
2021/12/20 06:50:48;;;;;;;17.42;4.38;;;-2.50;99.90;;;;;;5095973;28;20055;-92
2021/12/20 06:53:15;;;;;;;17.10;5.47;;;-2.60;99.90;;;;;;5096620;28;20047;-92
2021/12/20 06:55:41;;;;;;;21.70;11.05;;;-2.60;99.90;;;;;;5096308;28;20048;-92
2021/12/20 06:58:09;;;;;;;19.25;8.35;;;-2.60;99.90;;;;;;5096112;28;20048;-93
2021/12/20 07:00:36;;;;;;;18.85;5.85;;;-2.70;99.90;;;;;;5096013;28;20130;-93
2021/12/20 07:03:03;;;;;;;16.65;5.88;;;-2.70;99.90;;;;;;5096117;28;20044;-93
2021/12/20 07:05:30;;;;;;;18.88;6.78;;;-2.80;99.90;;;;;;5096003;28;20048;-93
2021/12/20 07:07:57;;;;;;;19.95;3.92;;;-2.80;99.90;;;;;;5096094;28;20444;-93
2021/12/20 07:10:24;;;;;;;9.45;2.50;;;-3.00;99.90;;;;;;5095700;28;20051;-93
2021/12/20 07:12:51;;;;;;;18.42;3.47;;;-3.10;99.90;;;;;;5095856;28;20134;-93
2021/12/20 07:15:19;;;;;;;17.27;3.78;;;-3.10;99.90;;;;;;5096166;28;20051;-93
2021/12/20 07:17:45;;;;;;;26.20;4.80;;;-3.10;99.90;;;;;;5095940;28;20543;-94
2021/12/20 07:20:13;;;;;;;16.63;4.78;;;-3.10;99.90;;;;;;5095887;28;20040;-93
2021/12/20 07:22:39;;;;;;;14.50;4.55;;;-3.20;99.90;;;;;;5096301;28;20071;-93
2021/12/20 07:25:08;;;;;;;18.60;4.22;;;-3.30;99.90;;;;;;5095805;28;20516;-93
2021/12/20 07:27:35;;;;;;;17.67;3.85;;;-3.20;99.90;;;;;;5095598;28;20410;-94
2021/12/20 07:30:04;;;;;;;16.73;4.55;;;-3.20;99.90;;;;;;5095704;28;20081;-94
2021/12/20 07:32:30;;;;;;;15.13;4.70;;;-3.20;99.90;;;;;;5095646;28;20513;-94
2021/12/20 07:34:57;;;;;;;23.98;6.57;;;-3.20;99.90;;;;;;5096005;28;20151;-93
2021/12/20 07:37:26;;;;;;;20.60;5.15;;;-3.00;99.90;;;;;;5095637;28;20079;-93
2021/12/20 07:39:54;;;;;;;17.08;5.32;;;-2.90;99.90;;;;;;5095812;28;20139;-94
2021/12/20 07:42:21;;;;;;;24.45;5.40;;;-2.80;99.90;;;;;;5095680;28;20050;-94
2021/12/20 07:44:47;;;;;;;18.60;4.93;;;-2.80;99.90;;;;;;5095526;28;20402;-93
2021/12/20 07:47:19;;;;;;;22.85;9.52;;;-2.90;99.90;;;;;;5096412;28;20131;-94
2021/12/20 07:49:46;;;;;;;17.90;6.47;;;-2.80;99.90;;;;;;5095602;28;20134;-94
2021/12/20 07:52:13;;;;;;;28.63;7.25;;;-2.80;99.90;;;;;;5095697;28;20454;-94
2021/12/20 07:54:40;;;;;;;25.55;6.72;;;-2.80;99.90;;;;;;5095397;28;20055;-94
2021/12/20 07:57:06;;;;;;;14.75;5.50;;;-2.80;99.90;;;;;;5095439;28;20131;-94
2021/12/20 07:59:33;;;;;;;11.88;3.83;;;-2.90;99.90;;;;;;5095446;28;20058;-94
2021/12/20 08:02:00;;;;;;;14.05;3.90;;;-2.90;99.90;;;;;;5095774;28;20040;-94
2021/12/20 08:04:26;;;;;;;21.15;7.70;;;-2.90;99.90;;;;;;5098670;28;20483;-94
2021/12/20 08:06:53;;;;;;;26.08;10.30;;;-2.90;99.90;;;;;;5098945;28;20483;-94
2021/12/20 08:09:20;;;;;;;27.45;7.70;;;-2.80;99.90;;;;;;5099188;28;20066;-94
2021/12/20 08:11:47;;;;;;;18.10;6.57;;;-3.00;99.90;;;;;;5099125;28;20122;-94
2021/12/20 08:14:14;;;;;;;16.65;7.00;;;-3.00;99.90;;;;;;5099336;28;20175;-94
2021/12/20 08:16:40;;;;;;;26.05;9.60;;;-3.00;99.90;;;;;;5099140;28;20051;-94
2021/12/20 08:19:08;;;;;;;31.45;8.45;;;-2.80;99.90;;;;;;5098737;28;20051;-94
2021/12/20 08:21:34;;;;;;;31.05;9.57;;;-2.70;99.90;;;;;;5099121;28;20048;-93
2021/12/20 08:24:01;;;;;;;30.10;9.13;;;-2.70;99.90;;;;;;5099167;28;20540;-93
2021/12/20 08:26:29;;;;;;;21.15;8.75;;;-2.70;99.90;;;;;;5116767;28;20039;-94
2021/12/20 08:28:57;;;;;;;22.23;9.27;;;-2.80;99.90;;;;;;5099278;28;20040;-94
2021/12/20 08:31:24;;;;;;;24.92;10.13;;;-2.80;99.90;;;;;;5098715;28;20051;-93
2021/12/20 08:33:50;;;;;;;28.08;9.65;;;-2.80;99.90;;;;;;5098805;28;20432;-94
2021/12/20 08:36:17;;;;;;;31.80;11.23;;;-2.80;99.90;;;;;;5116176;28;20515;-93
2021/12/20 08:38:44;;;;;;;26.55;10.00;;;-2.80;99.90;;;;;;5115922;28;20479;-94
2021/12/20 08:41:12;;;;;;;21.88;8.32;;;-2.80;99.90;;;;;;5116380;28;20051;-94
2021/12/20 08:43:40;;;;;;;24.65;8.57;;;-2.80;99.90;;;;;;5098333;28;20139;-93
2021/12/20 08:46:09;;;;;;;22.73;8.40;;;-2.80;99.90;;;;;;5098446;28;20079;-94
2021/12/20 08:48:36;;;;;;;21.38;7.60;;;-2.80;99.90;;;;;;5098430;28;20047;-94
2021/12/20 08:51:04;;;;;;;25.58;7.57;;;-2.70;99.90;;;;;;5098845;28;20047;-93
2021/12/20 08:53:31;;;;;;;22.02;8.13;;;-2.70;99.90;;;;;;5098280;28;20555;-94
2021/12/20 08:55:58;;;;;;;25.27;8.63;;;-2.60;99.90;;;;;;5098194;28;20131;-94
2021/12/20 08:58:25;;;;;;;21.08;6.78;;;-2.70;99.90;;;;;;5097974;28;20047;-94
2021/12/20 09:00:54;;;;;;;25.88;7.53;;;-2.70;99.90;;;;;;5098174;28;20044;-93
2021/12/20 09:03:21;;;;;;;16.85;6.45;;;-2.70;99.90;;;;;;5098175;28;20058;-94
2021/12/20 09:05:49;;;;;;;22.75;7.10;;;-2.50;99.90;;;;;;5097517;28;20407;-94
2021/12/20 09:08:18;;;;;;;20.80;6.97;;;-2.50;99.90;;;;;;5096821;28;20051;-94
2021/12/20 09:10:46;;;;;;;28.35;8.20;;;-2.50;99.90;;;;;;5097700;28;20124;-94
2021/12/20 09:13:13;;;;;;;27.50;8.68;;;-2.40;99.90;;;;;;5098046;28;20057;-93
2021/12/20 09:15:39;;;;;;;17.08;7.45;;;-2.40;99.90;;;;;;5097467;28;20051;-93
2021/12/20 09:18:08;;;;;;;34.17;8.77;;;-2.40;99.90;;;;;;5097814;28;20151;-93
2021/12/20 09:20:37;;;;;;;24.10;7.95;;;-2.40;99.90;;;;;;5097481;28;20077;-93
2021/12/20 09:23:06;;;;;;;25.05;8.73;;;-2.40;99.90;;;;;;5097653;28;20058;-93
2021/12/20 09:25:36;;;;;;;17.08;7.72;;;-2.50;99.90;;;;;;5097398;28;20136;-93
2021/12/20 09:28:05;;;;;;;20.88;8.60;;;-2.50;99.90;;;;;;5097345;28;20058;-94
2021/12/20 09:30:32;;;;;;;23.50;8.13;;;-2.60;99.90;;;;;;5097061;28;20135;-94
2021/12/20 09:33:00;;;;;;;24.42;8.25;;;-2.50;99.90;;;;;;5097470;28;20082;-94
2021/12/20 09:35:27;;;;;;;22.77;7.85;;;-2.50;99.90;;;;;;5097408;28;20067;-94
2021/12/20 09:37:54;;;;;;;25.20;8.95;;;-2.40;99.90;;;;;;5097378;28;20071;-94
2021/12/20 09:40:32;;;;;;;42.22;12.45;;;-2.40;99.90;;;;;;5097345;28;20495;-92
2021/12/20 09:43:05;;;;;;;31.50;11.15;;;-2.40;99.90;;;;;;5097329;28;20055;-92
2021/12/20 09:45:32;;;;;;;50.55;20.17;;;-2.40;99.90;;;;;;5097263;28;20290;-94
2021/12/20 09:47:59;;;;;;;48.35;20.42;;;-2.30;99.90;;;;;;5097460;28;20048;-93
2021/12/20 09:50:27;;;;;;;29.60;13.73;;;-2.40;99.90;;;;;;5097188;28;20093;-94
2021/12/20 09:52:54;;;;;;;46.58;14.18;;;-2.40;99.90;;;;;;5097387;28;20055;-93
2021/12/20 09:55:20;;;;;;;40.72;14.82;;;-2.30;99.90;;;;;;5096769;28;20130;-93
2021/12/20 09:57:49;;;;;;;46.63;16.83;;;-2.20;99.90;;;;;;5097273;28;20050;-93
2021/12/20 10:00:19;;;;;;;40.33;15.52;;;-2.20;99.90;;;;;;5097190;28;20048;-93
2021/12/20 10:02:47;;;;;;;45.75;15.27;;;-2.10;99.90;;;;;;5114902;28;20562;-93
2021/12/20 10:05:17;;;;;;;37.75;15.40;;;-2.10;99.90;;;;;;5097182;28;20491;-94
2021/12/20 10:07:50;;;;;;;31.13;9.82;;;-2.10;99.90;;;;;;5114957;28;20059;-93
2021/12/20 10:10:42;;;;;;;31.92;9.95;;;-2.10;99.90;;;;;;5097306;28;20039;-93
2021/12/20 10:13:20;;;;;;;42.15;10.18;;;-2.10;99.90;;;;;;5098308;28;20054;-93
2021/12/20 10:15:47;;;;;;;35.08;9.10;;;-2.00;99.90;;;;;;5097275;28;20051;-93
2021/12/20 10:18:14;;;;;;;27.95;8.77;;;-2.00;99.90;;;;;;5097028;28;20055;-93
2021/12/20 10:20:42;;;;;;;35.60;9.35;;;-1.90;99.90;;;;;;5096953;28;20044;-92
2021/12/20 10:23:13;;;;;;;39.33;10.82;;;-1.90;99.90;;;;;;5097204;28;20135;-93
2021/12/20 10:25:42;;;;;;;49.28;10.57;;;-1.80;99.90;;;;;;5096294;28;20051;-93
2021/12/20 10:28:13;;;;;;;46.22;11.05;;;-1.80;99.90;;;;;;5096999;28;20048;-92
2021/12/20 10:30:47;;;;;;;29.73;9.02;;;-1.70;99.90;;;;;;5096489;28;20504;-92
2021/12/20 10:33:16;;;;;;;50.05;18.55;;;-1.70;99.90;;;;;;5093240;28;20055;-93
2021/12/20 10:35:51;;;;;;;40.63;12.13;;;-1.60;99.90;;;;;;5093225;28;20127;-93
2021/12/20 10:38:28;;;;;;;36.03;13.55;;;-1.70;99.90;;;;;;5093038;28;20052;-93
2021/12/20 10:40:59;;;;;;;46.15;11.82;;;-1.60;99.90;;;;;;5093269;28;20051;-92
2021/12/20 10:43:40;;;;;;;48.38;11.13;;;-1.60;99.90;;;;;;5093062;28;20480;-92
2021/12/20 10:46:13;;;;;;;25.30;8.40;;;-1.60;99.90;;;;;;5093004;28;20046;-92
2021/12/20 10:48:44;;;;;;;30.58;9.35;;;-1.60;99.90;;;;;;5092983;28;20052;-92
2021/12/20 10:51:28;;;;;;;29.63;11.00;;;-1.60;99.90;;;;;;5093155;28;20048;-93
2021/12/20 10:53:59;;;;;;;14.48;7.07;;;-1.60;99.90;;;;;;5093195;28;20135;-92
2021/12/20 10:56:29;;;;;;;56.65;21.90;;;-1.50;99.90;;;;;;5092880;28;20040;-92
2021/12/20 10:58:57;;;;;;;72.25;32.50;;;-1.40;99.90;;;;;;5092711;28;20055;-92
2021/12/20 11:01:55;;;;;;;14.52;6.05;;;-1.30;99.90;;;;;;5092854;28;20051;-92
2021/12/20 11:04:27;;;;;;;29.02;7.07;;;-1.20;99.90;;;;;;5093031;28;20135;-92
2021/12/20 11:09:04;;;;;;;19.98;5.00;;;-1.20;99.90;;;;;;5093267;28;20052;-92
2021/12/20 11:09:47;;;;;;;9.85;3.00;;;-1.30;99.90;;;;;;5093763;28;20052;-92
2021/12/20 11:12:24;;;;;;;47.42;5.07;;;-1.10;99.90;;;;;;5092931;28;20547;-93
2021/12/20 11:14:56;;;;;;;51.47;5.88;;;-1.10;99.90;;;;;;5092897;28;20131;-90
2021/12/20 11:17:23;;;;;;;31.88;4.22;;;-1.10;99.90;;;;;;5092907;28;20541;-91
2021/12/20 11:19:53;;;;;;;11.07;1.90;;;-0.90;99.90;;;;;;5092779;28;20542;-92
2021/12/20 11:22:22;;;;;;;23.35;3.90;;;-0.80;99.90;;;;;;5092792;28;20407;-91
2021/12/20 11:24:54;;;;;;;16.23;2.80;;;-0.70;99.90;;;;;;5092806;28;20109;-91
2021/12/20 11:27:32;;;;;;;15.15;2.42;;;-0.70;99.90;;;;;;5092519;28;20051;-91
2021/12/20 11:30:22;;;;;;;18.23;7.82;;;-0.70;99.90;;;;;;5092550;28;20051;-91
2021/12/20 11:32:50;;;;;;;26.20;12.80;;;-0.60;99.90;;;;;;5107624;28;20576;-90
2021/12/20 11:35:20;;;;;;;161.32;66.32;;;-0.60;99.90;;;;;;5095998;28;20044;-91
2021/12/20 11:37:46;;;;;;;81.57;26.08;;;-0.30;99.90;;;;;;5098367;28;20402;-90
2021/12/20 11:40:16;;;;;;;127.13;35.08;;;0.00;99.90;;;;;;5099941;28;20047;-89
2021/12/20 11:42:43;;;;;;;134.40;42.42;;;0.90;99.90;;;;;;5100026;28;20044;-89
2021/12/20 11:45:15;;;;;;;294.23;110.25;;;1.60;99.90;;;;;;5099670;28;20052;-89
2021/12/20 11:48:03;;;;;;;179.05;89.43;;;1.50;99.90;;;;;;5099816;28;20051;-88
2021/12/20 11:50:36;;;;;;;15.95;7.72;;;1.50;99.90;;;;;;5100128;28;20047;-88
2021/12/20 11:53:08;;;;;;;14.63;6.38;;;1.30;99.90;;;;;;5099851;28;20441;-88
2021/12/20 11:55:36;;;;;;;14.88;4.13;;;1.30;99.90;;;;;;5099664;28;20116;-88
2021/12/20 11:58:18;;;;;;;15.10;2.20;;;1.20;99.90;;;;;;5099631;28;20111;-88
2021/12/20 12:00:53;;;;;;;405.83;231.52;;;1.30;99.90;;;;;;5099454;28;20071;-89
2021/12/20 12:03:24;;;;;;;251.48;158.50;;;1.30;99.90;;;;;;5099369;28;20058;-88
2021/12/20 12:05:53;;;;;;;36.88;10.23;;;1.30;99.90;;;;;;5099383;28;20062;-88
2021/12/20 12:08:23;;;;;;;17.13;9.25;;;1.40;99.90;;;;;;5099231;28;20086;-88
2021/12/20 12:10:51;;;;;;;50.17;28.90;;;1.30;99.90;;;;;;5099132;28;20134;-88
2021/12/20 12:13:19;;;;;;;39.88;28.40;;;1.30;99.90;;;;;;5099107;28;20073;-88
2021/12/20 12:16:01;;;;;;;22.85;8.32;;;1.10;99.90;;;;;;5099371;28;20071;-88
2021/12/20 12:18:47;;;;;;;9.07;4.90;;;1.10;99.90;;;;;;5099071;28;20457;-88
2021/12/20 12:21:32;;;;;;;9.93;5.57;;;1.00;99.90;;;;;;5099491;28;20058;-88
2021/12/20 12:24:45;;;;;;;8.55;2.50;;;1.00;99.90;;;;;;5101939;28;20055;-88
2021/12/20 12:27:23;;;;;;;14.70;3.37;;;1.00;99.90;;;;;;5098890;28;20082;-88
2021/12/20 12:30:12;;;;;;;23.45;3.75;;;0.90;99.90;;;;;;5099069;28;20293;-88
2021/12/20 12:33:02;;;;;;;5.43;1.20;;;0.90;99.90;;;;;;5098598;28;20051;-88
2021/12/20 12:35:38;;;;;;;11.00;1.85;;;0.80;99.90;;;;;;5098836;28;20067;-88
2021/12/20 12:38:16;;;;;;;15.48;3.25;;;0.70;99.90;;;;;;5098255;28;20056;-88
2021/12/20 12:40:49;;;;;;;12.25;2.65;;;0.70;99.90;;;;;;5097702;28;20100;-88
2021/12/20 12:43:26;;;;;;;6.18;1.30;;;0.70;99.90;;;;;;5098065;28;20160;-88
2021/12/20 12:45:55;;;;;;;7.35;1.05;;;0.70;99.90;;;;;;5098020;28;20142;-88
2021/12/20 12:48:43;;;;;;;9.45;1.20;;;0.80;99.90;;;;;;5097323;28;20047;-87
2021/12/20 12:51:16;;;;;;;20.70;2.00;;;0.80;99.90;;;;;;5097604;28;20139;-88
2021/12/20 12:53:48;;;;;;;11.17;1.40;;;0.90;99.90;;;;;;5097750;28;20059;-88
2021/12/20 12:56:27;;;;;;;10.37;1.30;;;0.90;99.90;;;;;;5097838;28;20139;-88
2021/12/20 12:59:12;;;;;;;2.05;0.85;;;0.70;99.90;;;;;;5097603;28;20047;-88
2021/12/20 13:01:48;;;;;;;3.15;0.90;;;0.80;99.90;;;;;;5097918;28;20134;-87
2021/12/20 13:04:15;;;;;;;4.70;0.90;;;1.30;99.90;;;;;;5097568;28;20545;-87
2021/12/20 13:06:43;;;;;;;1.70;0.70;;;1.30;99.90;;;;;;5097493;28;20048;-87
2021/12/20 13:09:09;;;;;;;5.38;0.73;;;1.40;99.90;;;;;;5097389;28;20048;-87
2021/12/20 13:11:36;;;;;;;5.45;1.00;;;1.60;99.90;;;;;;5097600;28;20085;-86